TCA7766 SVCS-SVBI
Flight info
| Callsign | TCA7766 |
|---|---|
| Flight time | N/A |
| Altitude | 22000 |
| Route | GUTUX1 MASPU W14 VASOT A550 BNS |
| Aircraft | B350/L-SBGRW/S |
Departure
| Time | 2026-05-03 21:11 |
|---|---|
| Airport | Caracas Óscar Machado Zuloaga International Airport (SVCS) |
Arrival
| Time | N/A |
|---|---|
| Airport | Barinas Airport (SVBI) |
| Time | Latitude | Longitude | Altitude | Speed | Heading |
|---|---|---|---|---|---|
| 2026-05-03 21:09 | 10.28748 | -66.82466 | 2159 ft | 0 kts | 94° |
| 2026-05-03 21:10 | 10.28739 | -66.82347 | 2158 ft | 57 kts | 93° |
| 2026-05-03 21:10 | 10.28699 | -66.81681 | 2164 ft | 128 kts | 95° |
| 2026-05-03 21:11 | 10.28612 | -66.80606 | 2369 ft | 166 kts | 105° |
| 2026-05-03 21:11 | 10.27976 | -66.79596 | 2997 ft | 175 kts | 131° |
| 2026-05-03 21:11 | 10.27037 | -66.78807 | 3580 ft | 191 kts | 152° |
| 2026-05-03 21:11 | 10.25572 | -66.78638 | 3597 ft | 234 kts | 188° |
| 2026-05-03 21:12 | 10.24068 | -66.79417 | 3715 ft | 255 kts | 221° |
| 2026-05-03 21:12 | 10.23073 | -66.80946 | 3813 ft | 267 kts | 247° |
| 2026-05-03 21:12 | 10.22453 | -66.82714 | 4148 ft | 263 kts | 248° |
| 2026-05-03 21:12 | 10.21687 | -66.84376 | 4557 ft | 257 kts | 237° |
| 2026-05-03 21:13 | 10.20631 | -66.85820 | 4953 ft | 253 kts | 226° |
| 2026-05-03 21:13 | 10.19433 | -66.87119 | 5342 ft | 252 kts | 225° |
| 2026-05-03 21:13 | 10.18291 | -66.88438 | 5874 ft | 243 kts | 228° |
| 2026-05-03 21:13 | 10.17229 | -66.89734 | 6492 ft | 235 kts | 228° |
| 2026-05-03 21:14 | 10.16186 | -66.90979 | 7096 ft | 229 kts | 227° |
| 2026-05-03 21:14 | 10.15162 | -66.92190 | 7710 ft | 225 kts | 227° |
| 2026-05-03 21:14 | 10.14154 | -66.93386 | 8324 ft | 221 kts | 228° |
| 2026-05-03 21:14 | 10.13159 | -66.94574 | 8953 ft | 220 kts | 228° |
| 2026-05-03 21:15 | 10.12168 | -66.95754 | 9596 ft | 219 kts | 227° |
| 2026-05-03 21:15 | 10.11189 | -66.96917 | 10199 ft | 219 kts | 226° |
| 2026-05-03 21:15 | 10.10198 | -66.98096 | 10785 ft | 219 kts | 227° |
| 2026-05-03 21:15 | 10.09206 | -66.99286 | 11388 ft | 221 kts | 227° |
| 2026-05-03 21:16 | 10.08208 | -67.00472 | 11998 ft | 221 kts | 227° |
| 2026-05-03 21:16 | 10.07210 | -67.01658 | 12630 ft | 220 kts | 226° |
| 2026-05-03 21:16 | 10.06214 | -67.02843 | 13263 ft | 221 kts | 225° |
| 2026-05-03 21:16 | 10.05213 | -67.04031 | 13890 ft | 222 kts | 225° |
| 2026-05-03 21:17 | 10.04214 | -67.05220 | 14468 ft | 222 kts | 225° |
| 2026-05-03 21:17 | 10.03551 | -67.06009 | 14854 ft | 222 kts | 225° |
| 2026-05-03 21:17 | 10.02220 | -67.07593 | 15647 ft | 220 kts | 225° |
| 2026-05-03 21:17 | 10.01217 | -67.08783 | 16116 ft | 225 kts | 225° |
| 2026-05-03 21:18 | 10.00172 | -67.10023 | 16372 ft | 241 kts | 225° |
| 2026-05-03 21:18 | 9.99056 | -67.11344 | 16519 ft | 257 kts | 226° |
| 2026-05-03 21:18 | 9.97872 | -67.12758 | 16682 ft | 269 kts | 226° |
| 2026-05-03 21:18 | 9.96736 | -67.14315 | 16844 ft | 281 kts | 238° |
| 2026-05-03 21:19 | 9.96008 | -67.16186 | 17023 ft | 290 kts | 255° |
| 2026-05-03 21:19 | 9.95791 | -67.18248 | 17184 ft | 297 kts | 271° |